LFKF/FSC METAR and TAF weather

Enter ICAO airport designator
Station Type Date Time Source
LFKF METAR 2024/04/17 19:00 UTC NOAA

LFKF 171900Z AUTO 27010KT 230V310 CAVOK 14/06 Q1007 NOSIG


Station Type Date Time Source
LFKF Decoded METAR 2024/04/17 19:00 UTC NOAA

Figari, France (LFKF) 41-30N 009-06E 23M
Apr 17, 2024 - 03:00 PM EDT / 2024.04.17 1900 UTC
Wind: from the W (270 degrees) at 12 MPH (10 KT) (direction variable):0
Visibility: greater than 7 mile(s):0
Temperature: 57 F (14 C)
Dew Point: 42 F (6 C)
Relative Humidity: 58%
Pressure (altimeter): 29.74 in. Hg (1007 hPa)
ob: LFKF 171900Z AUTO 27010KT 230V310 CAVOK 14/06 Q1007 NOSIG
cycle: 19

Station Type Date Time Source
LFKF TAF 2024/04/17 15:22 UTC NOAA